sensor_id;sensor_type;location;lat;lon;timestamp;P1;durP1;ratioP1;P2;durP2;ratioP2
20170;SDS011;10245;51.344;6.620;2023-01-28T00:01:24;11.87;;;9.13;;
20170;SDS011;10245;51.344;6.620;2023-01-28T00:03:48;13.27;;;9.40;;
20170;SDS011;10245;51.344;6.620;2023-01-28T00:06:13;14.63;;;9.80;;
20170;SDS011;10245;51.344;6.620;2023-01-28T00:08:37;11.83;;;9.83;;
20170;SDS011;10245;51.344;6.620;2023-01-28T00:11:00;13.07;;;10.10;;
20170;SDS011;10245;51.344;6.620;2023-01-28T00:13:26;13.00;;;10.80;;
20170;SDS011;10245;51.344;6.620;2023-01-28T00:15:53;13.18;;;11.23;;
20170;SDS011;10245;51.344;6.620;2023-01-28T00:18:19;12.82;;;10.15;;
20170;SDS011;10245;51.344;6.620;2023-01-28T00:20:42;13.20;;;10.75;;
20170;SDS011;10245;51.344;6.620;2023-01-28T00:23:06;15.60;;;11.77;;
20170;SDS011;10245;51.344;6.620;2023-01-28T00:25:29;13.48;;;11.20;;
20170;SDS011;10245;51.344;6.620;2023-01-28T00:27:53;12.00;;;10.70;;
20170;SDS011;10245;51.344;6.620;2023-01-28T00:30:16;15.77;;;10.97;;
20170;SDS011;10245;51.344;6.620;2023-01-28T00:32:41;13.47;;;10.80;;
20170;SDS011;10245;51.344;6.620;2023-01-28T00:35:07;13.53;;;11.27;;
20170;SDS011;10245;51.344;6.620;2023-01-28T00:37:34;12.37;;;11.07;;
20170;SDS011;10245;51.344;6.620;2023-01-28T00:39:58;14.00;;;10.98;;
20170;SDS011;10245;51.344;6.620;2023-01-28T00:42:22;12.73;;;11.40;;
20170;SDS011;10245;51.344;6.620;2023-01-28T00:44:45;12.88;;;10.95;;
20170;SDS011;10245;51.344;6.620;2023-01-28T00:47:08;12.30;;;11.00;;
20170;SDS011;10245;51.344;6.620;2023-01-28T00:49:32;13.95;;;11.50;;
20170;SDS011;10245;51.344;6.620;2023-01-28T00:51:57;12.10;;;10.90;;
20170;SDS011;10245;51.344;6.620;2023-01-28T00:54:20;14.25;;;12.15;;
20170;SDS011;10245;51.344;6.620;2023-01-28T00:56:43;15.63;;;12.97;;
20170;SDS011;10245;51.344;6.620;2023-01-28T00:59:06;14.67;;;12.53;;
20170;SDS011;10245;51.344;6.620;2023-01-28T01:01:30;15.82;;;12.68;;
20170;SDS011;10245;51.344;6.620;2023-01-28T01:03:53;15.50;;;12.23;;
20170;SDS011;10245;51.344;6.620;2023-01-28T01:06:24;15.03;;;12.93;;
20170;SDS011;10245;51.344;6.620;2023-01-28T01:08:48;16.23;;;13.40;;
20170;SDS011;10245;51.344;6.620;2023-01-28T01:11:12;17.13;;;12.77;;
20170;SDS011;10245;51.344;6.620;2023-01-28T01:13:36;16.93;;;13.00;;
20170;SDS011;10245;51.344;6.620;2023-01-28T01:16:00;18.80;;;13.45;;
20170;SDS011;10245;51.344;6.620;2023-01-28T01:18:25;17.03;;;13.63;;
20170;SDS011;10245;51.344;6.620;2023-01-28T01:20:48;17.90;;;12.77;;
20170;SDS011;10245;51.344;6.620;2023-01-28T01:23:13;16.90;;;13.43;;
20170;SDS011;10245;51.344;6.620;2023-01-28T01:25:38;16.23;;;13.70;;
20170;SDS011;10245;51.344;6.620;2023-01-28T01:28:01;18.75;;;13.95;;
20170;SDS011;10245;51.344;6.620;2023-01-28T01:30:25;15.87;;;13.47;;
20170;SDS011;10245;51.344;6.620;2023-01-28T01:32:49;17.27;;;13.43;;
20170;SDS011;10245;51.344;6.620;2023-01-28T01:35:13;17.53;;;13.70;;
20170;SDS011;10245;51.344;6.620;2023-01-28T01:37:37;15.93;;;13.53;;
20170;SDS011;10245;51.344;6.620;2023-01-28T01:40:00;16.23;;;13.05;;
20170;SDS011;10245;51.344;6.620;2023-01-28T01:42:26;17.80;;;13.30;;
20170;SDS011;10245;51.344;6.620;2023-01-28T01:44:57;18.55;;;13.63;;
20170;SDS011;10245;51.344;6.620;2023-01-28T01:47:23;17.13;;;14.10;;
20170;SDS011;10245;51.344;6.620;2023-01-28T01:49:51;18.42;;;14.23;;
20170;SDS011;10245;51.344;6.620;2023-01-28T01:52:16;19.80;;;14.97;;
20170;SDS011;10245;51.344;6.620;2023-01-28T01:54:46;24.27;;;17.17;;
20170;SDS011;10245;51.344;6.620;2023-01-28T01:57:15;27.60;;;17.93;;
20170;SDS011;10245;51.344;6.620;2023-01-28T01:59:45;26.93;;;18.37;;
20170;SDS011;10245;51.344;6.620;2023-01-28T02:02:09;23.23;;;16.80;;
20170;SDS011;10245;51.344;6.620;2023-01-28T02:04:34;23.20;;;16.83;;
20170;SDS011;10245;51.344;6.620;2023-01-28T02:07:01;25.17;;;16.65;;
20170;SDS011;10245;51.344;6.620;2023-01-28T02:09:26;24.65;;;16.83;;
20170;SDS011;10245;51.344;6.620;2023-01-28T02:11:51;23.60;;;16.27;;
20170;SDS011;10245;51.344;6.620;2023-01-28T02:14:17;20.03;;;14.57;;
20170;SDS011;10245;51.344;6.620;2023-01-28T02:16:52;18.60;;;14.13;;
20170;SDS011;10245;51.344;6.620;2023-01-28T02:19:16;19.40;;;14.73;;
20170;SDS011;10245;51.344;6.620;2023-01-28T02:21:49;15.43;;;12.43;;
20170;SDS011;10245;51.344;6.620;2023-01-28T02:24:39;16.00;;;12.13;;
20170;SDS011;10245;51.344;6.620;2023-01-28T02:27:30;11.77;;;10.50;;
20170;SDS011;10245;51.344;6.620;2023-01-28T02:30:02;12.60;;;9.73;;
20170;SDS011;10245;51.344;6.620;2023-01-28T02:32:33;11.13;;;8.27;;
20170;SDS011;10245;51.344;6.620;2023-01-28T02:35:03;9.50;;;8.43;;
20170;SDS011;10245;51.344;6.620;2023-01-28T02:37:36;10.57;;;8.40;;
20170;SDS011;10245;51.344;6.620;2023-01-28T02:40:05;10.57;;;8.17;;
20170;SDS011;10245;51.344;6.620;2023-01-28T02:42:34;10.67;;;7.63;;
20170;SDS011;10245;51.344;6.620;2023-01-28T02:45:01;8.97;;;7.40;;
20170;SDS011;10245;51.344;6.620;2023-01-28T02:47:26;8.50;;;7.60;;
20170;SDS011;10245;51.344;6.620;2023-01-28T02:50:07;9.00;;;7.87;;
20170;SDS011;10245;51.344;6.620;2023-01-28T02:52:37;7.73;;;7.03;;
20170;SDS011;10245;51.344;6.620;2023-01-28T02:55:31;8.50;;;7.60;;
20170;SDS011;10245;51.344;6.620;2023-01-28T02:58:02;9.10;;;8.20;;
20170;SDS011;10245;51.344;6.620;2023-01-28T03:00:35;10.07;;;8.30;;
20170;SDS011;10245;51.344;6.620;2023-01-28T03:03:10;10.87;;;8.87;;
20170;SDS011;10245;51.344;6.620;2023-01-28T03:05:41;11.32;;;9.63;;
20170;SDS011;10245;51.344;6.620;2023-01-28T03:08:24;12.50;;;9.97;;
20170;SDS011;10245;51.344;6.620;2023-01-28T03:11:05;14.70;;;10.50;;
20170;SDS011;10245;51.344;6.620;2023-01-28T03:13:45;12.37;;;10.17;;
20170;SDS011;10245;51.344;6.620;2023-01-28T03:16:29;10.93;;;9.57;;
20170;SDS011;10245;51.344;6.620;2023-01-28T03:19:12;10.50;;;9.13;;
20170;SDS011;10245;51.344;6.620;2023-01-28T03:21:54;11.83;;;9.33;;
20170;SDS011;10245;51.344;6.620;2023-01-28T03:24:37;10.77;;;9.47;;
20170;SDS011;10245;51.344;6.620;2023-01-28T03:27:25;10.57;;;8.97;;
20170;SDS011;10245;51.344;6.620;2023-01-28T03:30:14;11.83;;;10.53;;
20170;SDS011;10245;51.344;6.620;2023-01-28T03:33:06;12.93;;;10.17;;
20170;SDS011;10245;51.344;6.620;2023-01-28T03:35:48;13.07;;;10.70;;
20170;SDS011;10245;51.344;6.620;2023-01-28T03:38:29;14.77;;;11.40;;
20170;SDS011;10245;51.344;6.620;2023-01-28T03:40:54;12.87;;;11.17;;
20170;SDS011;10245;51.344;6.620;2023-01-28T03:43:21;14.87;;;11.17;;
20170;SDS011;10245;51.344;6.620;2023-01-28T03:45:46;14.13;;;10.87;;
20170;SDS011;10245;51.344;6.620;2023-01-28T03:48:13;11.23;;;9.70;;
20170;SDS011;10245;51.344;6.620;2023-01-28T03:50:36;12.23;;;9.80;;
20170;SDS011;10245;51.344;6.620;2023-01-28T03:53:00;10.23;;;8.80;;
20170;SDS011;10245;51.344;6.620;2023-01-28T03:55:39;11.87;;;9.63;;
20170;SDS011;10245;51.344;6.620;2023-01-28T03:58:02;12.33;;;9.33;;
20170;SDS011;10245;51.344;6.620;2023-01-28T04:00:28;12.93;;;9.63;;
20170;SDS011;10245;51.344;6.620;2023-01-28T04:02:53;12.60;;;9.70;;
20170;SDS011;10245;51.344;6.620;2023-01-28T04:05:18;15.27;;;10.37;;
20170;SDS011;10245;51.344;6.620;2023-01-28T04:07:43;13.37;;;10.20;;
20170;SDS011;10245;51.344;6.620;2023-01-28T04:10:28;12.93;;;10.50;;
20170;SDS011;10245;51.344;6.620;2023-01-28T04:13:03;13.70;;;10.93;;
20170;SDS011;10245;51.344;6.620;2023-01-28T04:15:26;14.50;;;10.70;;
20170;SDS011;10245;51.344;6.620;2023-01-28T04:17:51;11.83;;;10.27;;
20170;SDS011;10245;51.344;6.620;2023-01-28T04:20:21;14.87;;;10.60;;
20170;SDS011;10245;51.344;6.620;2023-01-28T04:22:44;14.20;;;10.47;;
20170;SDS011;10245;51.344;6.620;2023-01-28T04:25:08;13.30;;;10.17;;
20170;SDS011;10245;51.344;6.620;2023-01-28T04:27:33;15.97;;;10.83;;
20170;SDS011;10245;51.344;6.620;2023-01-28T04:30:06;10.87;;;9.77;;
20170;SDS011;10245;51.344;6.620;2023-01-28T04:32:34;11.93;;;10.37;;
20170;SDS011;10245;51.344;6.620;2023-01-28T04:35:25;11.30;;;8.60;;
20170;SDS011;10245;51.344;6.620;2023-01-28T04:37:55;10.63;;;9.23;;
20170;SDS011;10245;51.344;6.620;2023-01-28T04:40:24;15.43;;;10.03;;
20170;SDS011;10245;51.344;6.620;2023-01-28T04:42:55;12.23;;;8.90;;
20170;SDS011;10245;51.344;6.620;2023-01-28T04:45:38;12.53;;;9.60;;
20170;SDS011;10245;51.344;6.620;2023-01-28T04:48:15;15.70;;;11.23;;
20170;SDS011;10245;51.344;6.620;2023-01-28T04:50:58;13.37;;;10.37;;
20170;SDS011;10245;51.344;6.620;2023-01-28T04:53:31;12.07;;;10.23;;
20170;SDS011;10245;51.344;6.620;2023-01-28T04:56:00;12.97;;;10.30;;
20170;SDS011;10245;51.344;6.620;2023-01-28T04:58:26;14.60;;;11.63;;
20170;SDS011;10245;51.344;6.620;2023-01-28T05:00:54;15.00;;;12.50;;
20170;SDS011;10245;51.344;6.620;2023-01-28T05:03:18;17.23;;;11.80;;
20170;SDS011;10245;51.344;6.620;2023-01-28T05:05:42;18.10;;;14.33;;
20170;SDS011;10245;51.344;6.620;2023-01-28T05:08:36;25.27;;;16.83;;
20170;SDS011;10245;51.344;6.620;2023-01-28T05:10:59;23.23;;;16.93;;
20170;SDS011;10245;51.344;6.620;2023-01-28T05:13:23;25.03;;;16.63;;
20170;SDS011;10245;51.344;6.620;2023-01-28T05:15:49;21.97;;;15.93;;
20170;SDS011;10245;51.344;6.620;2023-01-28T05:18:14;21.93;;;16.03;;
20170;SDS011;10245;51.344;6.620;2023-01-28T05:20:44;19.57;;;15.27;;
20170;SDS011;10245;51.344;6.620;2023-01-28T05:23:07;20.63;;;15.30;;
20170;SDS011;10245;51.344;6.620;2023-01-28T05:25:44;22.70;;;15.80;;
20170;SDS011;10245;51.344;6.620;2023-01-28T05:28:07;21.00;;;15.37;;
20170;SDS011;10245;51.344;6.620;2023-01-28T05:30:30;19.57;;;15.10;;
20170;SDS011;10245;51.344;6.620;2023-01-28T05:32:54;21.33;;;15.63;;
20170;SDS011;10245;51.344;6.620;2023-01-28T05:35:18;23.47;;;17.53;;
20170;SDS011;10245;51.344;6.620;2023-01-28T05:37:42;28.50;;;19.97;;
20170;SDS011;10245;51.344;6.620;2023-01-28T05:40:06;25.53;;;18.10;;
20170;SDS011;10245;51.344;6.620;2023-01-28T05:42:32;25.37;;;16.50;;
20170;SDS011;10245;51.344;6.620;2023-01-28T05:45:13;25.10;;;16.93;;
20170;SDS011;10245;51.344;6.620;2023-01-28T05:47:55;25.90;;;18.13;;
20170;SDS011;10245;51.344;6.620;2023-01-28T05:50:57;22.07;;;15.90;;
20170;SDS011;10245;51.344;6.620;2023-01-28T05:53:27;25.97;;;17.70;;
20170;SDS011;10245;51.344;6.620;2023-01-28T05:55:51;24.30;;;16.70;;
20170;SDS011;10245;51.344;6.620;2023-01-28T05:58:17;24.37;;;17.30;;
20170;SDS011;10245;51.344;6.620;2023-01-28T06:00:40;23.97;;;17.27;;
20170;SDS011;10245;51.344;6.620;2023-01-28T06:03:04;23.37;;;16.27;;
20170;SDS011;10245;51.344;6.620;2023-01-28T06:05:29;25.57;;;18.27;;
20170;SDS011;10245;51.344;6.620;2023-01-28T06:07:54;25.00;;;18.97;;
20170;SDS011;10245;51.344;6.620;2023-01-28T06:10:17;25.20;;;18.37;;
20170;SDS011;10245;51.344;6.620;2023-01-28T06:12:41;26.03;;;18.50;;
20170;SDS011;10245;51.344;6.620;2023-01-28T06:15:24;29.60;;;18.83;;
20170;SDS011;10245;51.344;6.620;2023-01-28T06:18:14;24.00;;;17.80;;
20170;SDS011;10245;51.344;6.620;2023-01-28T06:20:37;25.93;;;17.83;;
20170;SDS011;10245;51.344;6.620;2023-01-28T06:23:01;27.13;;;18.67;;
20170;SDS011;10245;51.344;6.620;2023-01-28T06:25:24;23.47;;;16.67;;
20170;SDS011;10245;51.344;6.620;2023-01-28T06:27:48;24.07;;;17.27;;
20170;SDS011;10245;51.344;6.620;2023-01-28T06:30:11;22.07;;;16.20;;
20170;SDS011;10245;51.344;6.620;2023-01-28T06:32:37;25.03;;;16.33;;
20170;SDS011;10245;51.344;6.620;2023-01-28T06:35:01;22.53;;;15.73;;
20170;SDS011;10245;51.344;6.620;2023-01-28T06:37:24;26.60;;;19.30;;
20170;SDS011;10245;51.344;6.620;2023-01-28T06:39:48;25.53;;;18.77;;
20170;SDS011;10245;51.344;6.620;2023-01-28T06:42:11;27.67;;;18.53;;
20170;SDS011;10245;51.344;6.620;2023-01-28T06:44:35;27.07;;;19.77;;
20170;SDS011;10245;51.344;6.620;2023-01-28T06:46:58;27.00;;;18.90;;
20170;SDS011;10245;51.344;6.620;2023-01-28T06:49:23;26.07;;;16.87;;
20170;SDS011;10245;51.344;6.620;2023-01-28T06:51:46;23.40;;;17.30;;
20170;SDS011;10245;51.344;6.620;2023-01-28T06:54:10;34.17;;;23.63;;
20170;SDS011;10245;51.344;6.620;2023-01-28T06:56:33;31.97;;;21.90;;
20170;SDS011;10245;51.344;6.620;2023-01-28T06:58:56;22.90;;;16.93;;
20170;SDS011;10245;51.344;6.620;2023-01-28T07:01:19;24.20;;;17.10;;
20170;SDS011;10245;51.344;6.620;2023-01-28T07:03:43;30.37;;;18.13;;
20170;SDS011;10245;51.344;6.620;2023-01-28T07:06:08;26.60;;;19.30;;
20170;SDS011;10245;51.344;6.620;2023-01-28T07:08:31;24.93;;;18.70;;
20170;SDS011;10245;51.344;6.620;2023-01-28T07:10:54;29.20;;;19.10;;
20170;SDS011;10245;51.344;6.620;2023-01-28T07:13:18;27.20;;;18.37;;
20170;SDS011;10245;51.344;6.620;2023-01-28T07:15:41;24.30;;;17.53;;
20170;SDS011;10245;51.344;6.620;2023-01-28T07:18:04;23.00;;;17.53;;
20170;SDS011;10245;51.344;6.620;2023-01-28T07:20:28;24.53;;;18.53;;
20170;SDS011;10245;51.344;6.620;2023-01-28T07:22:54;27.07;;;19.60;;
20170;SDS011;10245;51.344;6.620;2023-01-28T07:25:17;29.60;;;19.57;;
20170;SDS011;10245;51.344;6.620;2023-01-28T07:27:44;30.80;;;20.83;;
20170;SDS011;10245;51.344;6.620;2023-01-28T07:30:10;33.40;;;22.00;;
20170;SDS011;10245;51.344;6.620;2023-01-28T07:32:35;35.60;;;23.77;;
20170;SDS011;10245;51.344;6.620;2023-01-28T07:34:58;37.53;;;23.97;;
20170;SDS011;10245;51.344;6.620;2023-01-28T07:37:21;39.33;;;26.10;;
20170;SDS011;10245;51.344;6.620;2023-01-28T07:39:46;34.30;;;22.93;;
20170;SDS011;10245;51.344;6.620;2023-01-28T07:42:09;34.40;;;22.73;;
20170;SDS011;10245;51.344;6.620;2023-01-28T07:44:39;39.63;;;24.03;;
20170;SDS011;10245;51.344;6.620;2023-01-28T07:47:03;39.60;;;24.70;;
20170;SDS011;10245;51.344;6.620;2023-01-28T07:49:27;32.17;;;20.47;;
20170;SDS011;10245;51.344;6.620;2023-01-28T07:51:51;33.30;;;20.93;;
20170;SDS011;10245;51.344;6.620;2023-01-28T07:54:15;39.53;;;24.50;;
20170;SDS011;10245;51.344;6.620;2023-01-28T07:56:39;45.40;;;27.67;;
20170;SDS011;10245;51.344;6.620;2023-01-28T07:59:03;48.70;;;28.23;;
20170;SDS011;10245;51.344;6.620;2023-01-28T08:01:26;51.87;;;31.00;;
20170;SDS011;10245;51.344;6.620;2023-01-28T08:03:50;47.80;;;27.63;;
20170;SDS011;10245;51.344;6.620;2023-01-28T08:06:13;40.13;;;24.43;;
20170;SDS011;10245;51.344;6.620;2023-01-28T08:08:36;40.87;;;25.83;;
20170;SDS011;10245;51.344;6.620;2023-01-28T08:11:04;45.87;;;26.83;;
20170;SDS011;10245;51.344;6.620;2023-01-28T08:13:31;42.80;;;26.37;;
20170;SDS011;10245;51.344;6.620;2023-01-28T08:15:54;45.20;;;26.13;;
20170;SDS011;10245;51.344;6.620;2023-01-28T08:18:18;43.30;;;25.97;;
20170;SDS011;10245;51.344;6.620;2023-01-28T08:20:41;43.93;;;27.07;;
20170;SDS011;10245;51.344;6.620;2023-01-28T08:23:07;43.90;;;26.97;;
20170;SDS011;10245;51.344;6.620;2023-01-28T08:25:34;42.67;;;25.37;;
20170;SDS011;10245;51.344;6.620;2023-01-28T08:27:58;53.03;;;37.30;;
20170;SDS011;10245;51.344;6.620;2023-01-28T08:30:22;42.20;;;28.17;;
20170;SDS011;10245;51.344;6.620;2023-01-28T08:32:46;43.20;;;26.60;;
20170;SDS011;10245;51.344;6.620;2023-01-28T08:35:09;38.67;;;25.53;;
20170;SDS011;10245;51.344;6.620;2023-01-28T08:37:32;40.70;;;25.80;;
20170;SDS011;10245;51.344;6.620;2023-01-28T08:39:56;41.93;;;25.33;;
20170;SDS011;10245;51.344;6.620;2023-01-28T08:42:19;38.87;;;24.70;;
20170;SDS011;10245;51.344;6.620;2023-01-28T08:44:42;37.47;;;24.43;;
20170;SDS011;10245;51.344;6.620;2023-01-28T08:47:07;34.33;;;23.17;;
20170;SDS011;10245;51.344;6.620;2023-01-28T08:49:30;38.73;;;24.10;;
20170;SDS011;10245;51.344;6.620;2023-01-28T08:51:54;36.67;;;22.00;;
20170;SDS011;10245;51.344;6.620;2023-01-28T08:54:17;35.17;;;22.40;;
20170;SDS011;10245;51.344;6.620;2023-01-28T08:56:40;31.63;;;21.00;;
20170;SDS011;10245;51.344;6.620;2023-01-28T08:59:05;33.80;;;21.07;;
20170;SDS011;10245;51.344;6.620;2023-01-28T09:01:28;32.67;;;21.90;;
20170;SDS011;10245;51.344;6.620;2023-01-28T09:03:53;32.93;;;21.97;;
20170;SDS011;10245;51.344;6.620;2023-01-28T09:06:16;33.50;;;21.73;;
20170;SDS011;10245;51.344;6.620;2023-01-28T09:08:39;30.83;;;20.80;;
20170;SDS011;10245;51.344;6.620;2023-01-28T09:11:03;34.77;;;21.73;;
20170;SDS011;10245;51.344;6.620;2023-01-28T09:13:26;34.70;;;20.13;;
20170;SDS011;10245;51.344;6.620;2023-01-28T09:15:50;28.20;;;19.33;;
20170;SDS011;10245;51.344;6.620;2023-01-28T09:18:14;27.60;;;18.57;;
20170;SDS011;10245;51.344;6.620;2023-01-28T09:20:38;33.57;;;20.00;;
20170;SDS011;10245;51.344;6.620;2023-01-28T09:23:03;28.30;;;19.23;;
20170;SDS011;10245;51.344;6.620;2023-01-28T09:25:26;30.20;;;19.73;;
20170;SDS011;10245;51.344;6.620;2023-01-28T09:27:50;28.63;;;18.80;;
20170;SDS011;10245;51.344;6.620;2023-01-28T09:30:13;27.37;;;19.60;;
20170;SDS011;10245;51.344;6.620;2023-01-28T09:32:38;26.87;;;18.33;;
20170;SDS011;10245;51.344;6.620;2023-01-28T09:35:01;40.60;;;25.50;;
20170;SDS011;10245;51.344;6.620;2023-01-28T09:37:26;29.73;;;20.00;;
20170;SDS011;10245;51.344;6.620;2023-01-28T09:39:50;35.37;;;22.13;;
20170;SDS011;10245;51.344;6.620;2023-01-28T09:42:18;33.50;;;20.73;;
20170;SDS011;10245;51.344;6.620;2023-01-28T09:44:58;31.67;;;20.30;;
20170;SDS011;10245;51.344;6.620;2023-01-28T09:47:29;29.80;;;20.53;;
20170;SDS011;10245;51.344;6.620;2023-01-28T09:49:58;33.33;;;21.03;;
20170;SDS011;10245;51.344;6.620;2023-01-28T09:52:24;31.13;;;20.07;;
20170;SDS011;10245;51.344;6.620;2023-01-28T09:54:53;32.40;;;20.90;;
20170;SDS011;10245;51.344;6.620;2023-01-28T09:57:23;27.17;;;19.47;;
20170;SDS011;10245;51.344;6.620;2023-01-28T09:59:48;31.53;;;19.87;;
20170;SDS011;10245;51.344;6.620;2023-01-28T10:02:18;31.73;;;20.40;;
20170;SDS011;10245;51.344;6.620;2023-01-28T10:04:56;31.50;;;21.43;;
20170;SDS011;10245;51.344;6.620;2023-01-28T10:07:31;34.97;;;22.97;;
20170;SDS011;10245;51.344;6.620;2023-01-28T10:10:03;36.97;;;24.70;;
20170;SDS011;10245;51.344;6.620;2023-01-28T10:12:40;40.37;;;25.40;;
20170;SDS011;10245;51.344;6.620;2023-01-28T10:15:48;39.73;;;26.33;;
20170;SDS011;10245;51.344;6.620;2023-01-28T10:18:21;42.77;;;28.03;;
20170;SDS011;10245;51.344;6.620;2023-01-28T10:20:57;43.07;;;28.77;;
20170;SDS011;10245;51.344;6.620;2023-01-28T10:23:31;46.77;;;29.37;;
20170;SDS011;10245;51.344;6.620;2023-01-28T10:26:08;46.50;;;28.50;;
20170;SDS011;10245;51.344;6.620;2023-01-28T10:28:44;42.07;;;26.60;;
20170;SDS011;10245;51.344;6.620;2023-01-28T10:31:14;37.27;;;24.97;;
20170;SDS011;10245;51.344;6.620;2023-01-28T10:33:37;39.63;;;25.77;;
20170;SDS011;10245;51.344;6.620;2023-01-28T10:36:01;38.33;;;24.80;;
20170;SDS011;10245;51.344;6.620;2023-01-28T10:38:26;35.77;;;22.03;;
20170;SDS011;10245;51.344;6.620;2023-01-28T10:40:52;34.13;;;23.07;;
20170;SDS011;10245;51.344;6.620;2023-01-28T10:43:22;30.13;;;20.43;;
20170;SDS011;10245;51.344;6.620;2023-01-28T10:45:52;33.43;;;20.97;;
20170;SDS011;10245;51.344;6.620;2023-01-28T10:48:20;29.73;;;19.63;;
20170;SDS011;10245;51.344;6.620;2023-01-28T10:50:50;29.93;;;20.47;;
20170;SDS011;10245;51.344;6.620;2023-01-28T10:53:17;31.23;;;20.83;;
20170;SDS011;10245;51.344;6.620;2023-01-28T10:55:46;35.20;;;22.93;;
20170;SDS011;10245;51.344;6.620;2023-01-28T10:58:13;31.10;;;21.27;;
20170;SDS011;10245;51.344;6.620;2023-01-28T11:00:41;33.63;;;22.03;;
20170;SDS011;10245;51.344;6.620;2023-01-28T11:03:05;35.70;;;23.03;;
20170;SDS011;10245;51.344;6.620;2023-01-28T11:05:38;34.67;;;23.67;;
20170;SDS011;10245;51.344;6.620;2023-01-28T11:08:14;33.70;;;21.50;;
20170;SDS011;10245;51.344;6.620;2023-01-28T11:10:38;32.80;;;22.23;;
20170;SDS011;10245;51.344;6.620;2023-01-28T11:13:05;35.40;;;22.97;;
20170;SDS011;10245;51.344;6.620;2023-01-28T11:15:39;38.30;;;24.90;;
20170;SDS011;10245;51.344;6.620;2023-01-28T11:18:13;33.33;;;22.83;;
20170;SDS011;10245;51.344;6.620;2023-01-28T11:20:41;38.37;;;23.63;;
20170;SDS011;10245;51.344;6.620;2023-01-28T11:23:16;35.00;;;22.83;;
20170;SDS011;10245;51.344;6.620;2023-01-28T11:25:44;35.17;;;21.43;;
20170;SDS011;10245;51.344;6.620;2023-01-28T11:28:14;33.07;;;21.43;;
20170;SDS011;10245;51.344;6.620;2023-01-28T11:30:40;31.73;;;19.33;;
20170;SDS011;10245;51.344;6.620;2023-01-28T11:33:06;32.47;;;20.50;;
20170;SDS011;10245;51.344;6.620;2023-01-28T11:35:37;30.63;;;20.23;;
20170;SDS011;10245;51.344;6.620;2023-01-28T11:38:00;29.87;;;20.13;;
20170;SDS011;10245;51.344;6.620;2023-01-28T11:40:24;31.00;;;20.57;;
20170;SDS011;10245;51.344;6.620;2023-01-28T11:42:48;31.00;;;20.23;;
20170;SDS011;10245;51.344;6.620;2023-01-28T11:45:16;30.63;;;20.63;;
20170;SDS011;10245;51.344;6.620;2023-01-28T11:47:45;29.90;;;20.43;;
20170;SDS011;10245;51.344;6.620;2023-01-28T11:50:29;34.93;;;21.70;;
20170;SDS011;10245;51.344;6.620;2023-01-28T11:53:05;32.13;;;20.60;;
20170;SDS011;10245;51.344;6.620;2023-01-28T11:55:48;30.83;;;20.03;;
20170;SDS011;10245;51.344;6.620;2023-01-28T11:58:37;33.93;;;22.47;;
20170;SDS011;10245;51.344;6.620;2023-01-28T12:01:13;36.80;;;22.43;;
20170;SDS011;10245;51.344;6.620;2023-01-28T12:03:48;32.67;;;22.33;;
20170;SDS011;10245;51.344;6.620;2023-01-28T12:06:37;31.37;;;21.10;;
20170;SDS011;10245;51.344;6.620;2023-01-28T12:09:20;31.63;;;20.57;;
20170;SDS011;10245;51.344;6.620;2023-01-28T12:11:56;31.07;;;21.07;;
20170;SDS011;10245;51.344;6.620;2023-01-28T12:14:35;32.10;;;21.37;;
20170;SDS011;10245;51.344;6.620;2023-01-28T12:17:20;33.17;;;21.00;;
20170;SDS011;10245;51.344;6.620;2023-01-28T12:19:57;34.07;;;22.43;;
20170;SDS011;10245;51.344;6.620;2023-01-28T12:22:43;35.70;;;23.27;;
20170;SDS011;10245;51.344;6.620;2023-01-28T12:25:23;32.67;;;21.37;;
20170;SDS011;10245;51.344;6.620;2023-01-28T12:27:59;32.60;;;21.97;;
20170;SDS011;10245;51.344;6.620;2023-01-28T12:30:34;34.97;;;21.63;;
20170;SDS011;10245;51.344;6.620;2023-01-28T12:33:28;33.67;;;22.10;;
20170;SDS011;10245;51.344;6.620;2023-01-28T12:36:12;32.97;;;22.37;;
20170;SDS011;10245;51.344;6.620;2023-01-28T12:38:52;36.87;;;25.07;;
20170;SDS011;10245;51.344;6.620;2023-01-28T12:41:27;90.33;;;30.13;;
20170;SDS011;10245;51.344;6.620;2023-01-28T12:43:57;73.20;;;28.97;;
20170;SDS011;10245;51.344;6.620;2023-01-28T12:46:26;49.07;;;26.57;;
20170;SDS011;10245;51.344;6.620;2023-01-28T12:49:01;39.80;;;26.47;;
20170;SDS011;10245;51.344;6.620;2023-01-28T12:51:29;35.03;;;23.70;;
20170;SDS011;10245;51.344;6.620;2023-01-28T12:54:02;39.63;;;24.83;;
20170;SDS011;10245;51.344;6.620;2023-01-28T12:56:34;41.43;;;26.50;;
20170;SDS011;10245;51.344;6.620;2023-01-28T12:59:03;40.43;;;25.93;;
20170;SDS011;10245;51.344;6.620;2023-01-28T13:01:34;36.80;;;24.53;;
20170;SDS011;10245;51.344;6.620;2023-01-28T13:04:07;38.10;;;25.77;;
20170;SDS011;10245;51.344;6.620;2023-01-28T13:06:37;38.20;;;25.17;;
20170;SDS011;10245;51.344;6.620;2023-01-28T13:09:10;38.77;;;25.03;;
20170;SDS011;10245;51.344;6.620;2023-01-28T13:11:39;35.73;;;23.30;;
20170;SDS011;10245;51.344;6.620;2023-01-28T13:14:03;37.30;;;24.10;;
20170;SDS011;10245;51.344;6.620;2023-01-28T13:16:27;32.50;;;21.87;;
20170;SDS011;10245;51.344;6.620;2023-01-28T13:19:06;33.37;;;23.40;;
20170;SDS011;10245;51.344;6.620;2023-01-28T13:21:44;34.60;;;23.73;;
20170;SDS011;10245;51.344;6.620;2023-01-28T13:24:20;36.27;;;23.93;;
20170;SDS011;10245;51.344;6.620;2023-01-28T13:26:53;37.03;;;24.57;;
20170;SDS011;10245;51.344;6.620;2023-01-28T13:29:19;38.27;;;25.57;;
20170;SDS011;10245;51.344;6.620;2023-01-28T13:31:54;36.90;;;24.73;;
20170;SDS011;10245;51.344;6.620;2023-01-28T13:34:31;44.67;;;27.13;;
20170;SDS011;10245;51.344;6.620;2023-01-28T13:36:58;45.10;;;27.70;;
20170;SDS011;10245;51.344;6.620;2023-01-28T13:39:26;42.30;;;27.10;;
20170;SDS011;10245;51.344;6.620;2023-01-28T13:41:52;39.90;;;27.13;;
20170;SDS011;10245;51.344;6.620;2023-01-28T13:44:18;39.60;;;27.13;;
20170;SDS011;10245;51.344;6.620;2023-01-28T13:46:49;46.80;;;28.93;;
20170;SDS011;10245;51.344;6.620;2023-01-28T13:49:13;47.33;;;31.07;;
20170;SDS011;10245;51.344;6.620;2023-01-28T13:51:46;48.33;;;30.23;;
20170;SDS011;10245;51.344;6.620;2023-01-28T13:54:20;44.37;;;28.17;;
20170;SDS011;10245;51.344;6.620;2023-01-28T13:56:48;42.37;;;27.43;;
20170;SDS011;10245;51.344;6.620;2023-01-28T13:59:34;41.93;;;26.13;;
20170;SDS011;10245;51.344;6.620;2023-01-28T14:02:21;38.77;;;25.57;;
20170;SDS011;10245;51.344;6.620;2023-01-28T14:05:30;41.83;;;28.53;;
20170;SDS011;10245;51.344;6.620;2023-01-28T14:08:23;46.33;;;29.40;;
20170;SDS011;10245;51.344;6.620;2023-01-28T14:11:29;45.97;;;29.70;;
20170;SDS011;10245;51.344;6.620;2023-01-28T14:14:31;49.03;;;29.07;;
20170;SDS011;10245;51.344;6.620;2023-01-28T14:17:29;45.97;;;30.40;;
20170;SDS011;10245;51.344;6.620;2023-01-28T14:20:04;50.07;;;30.03;;
20170;SDS011;10245;51.344;6.620;2023-01-28T14:22:39;49.53;;;31.87;;
20170;SDS011;10245;51.344;6.620;2023-01-28T14:25:10;47.10;;;31.27;;
20170;SDS011;10245;51.344;6.620;2023-01-28T14:27:35;48.63;;;30.10;;
20170;SDS011;10245;51.344;6.620;2023-01-28T14:30:06;51.77;;;29.93;;
20170;SDS011;10245;51.344;6.620;2023-01-28T14:32:43;45.20;;;29.60;;
20170;SDS011;10245;51.344;6.620;2023-01-28T14:35:08;51.47;;;32.70;;
20170;SDS011;10245;51.344;6.620;2023-01-28T14:37:38;48.40;;;30.77;;